sensor_id;sensor_type;location;lat;lon;timestamp;P1;durP1;ratioP1;P2;durP2;ratioP2
74180;SDS011;62544;50.826;14.354;2022-09-13T00:03:01;4.20;;;3.55;;
74180;SDS011;62544;50.826;14.354;2022-09-13T00:07:03;3.47;;;3.12;;
74180;SDS011;62544;50.826;14.354;2022-09-13T00:11:05;3.47;;;3.12;;
74180;SDS011;62544;50.826;14.354;2022-09-13T00:15:07;3.47;;;3.12;;
74180;SDS011;62544;50.826;14.354;2022-09-13T00:19:09;3.46;;;3.01;;
74180;SDS011;62544;50.826;14.354;2022-09-13T00:23:11;3.46;;;3.01;;
74180;SDS011;62544;50.826;14.354;2022-09-13T00:27:13;4.46;;;3.32;;
74180;SDS011;62544;50.826;14.354;2022-09-13T00:31:15;4.46;;;3.32;;
74180;SDS011;62544;50.826;14.354;2022-09-13T00:35:17;4.46;;;3.32;;
74180;SDS011;62544;50.826;14.354;2022-09-13T00:39:19;3.55;;;2.92;;
74180;SDS011;62544;50.826;14.354;2022-09-13T00:43:37;3.55;;;2.92;;
74180;SDS011;62544;50.826;14.354;2022-09-13T00:47:32;3.32;;;2.98;;
74180;SDS011;62544;50.826;14.354;2022-09-13T00:51:25;3.32;;;2.98;;
74180;SDS011;62544;50.826;14.354;2022-09-13T00:55:31;3.32;;;2.98;;
74180;SDS011;62544;50.826;14.354;2022-09-13T00:59:30;3.34;;;2.81;;
74180;SDS011;62544;50.826;14.354;2022-09-13T01:03:32;3.34;;;2.81;;
74180;SDS011;62544;50.826;14.354;2022-09-13T01:07:33;6.19;;;4.26;;
74180;SDS011;62544;50.826;14.354;2022-09-13T01:11:40;6.19;;;4.26;;
74180;SDS011;62544;50.826;14.354;2022-09-13T01:15:37;6.19;;;4.26;;
74180;SDS011;62544;50.826;14.354;2022-09-13T01:19:39;4.02;;;3.44;;
74180;SDS011;62544;50.826;14.354;2022-09-13T01:47:57;5.23;;;3.82;;
74180;SDS011;62544;50.826;14.354;2022-09-13T01:51:59;5.23;;;3.82;;
74180;SDS011;62544;50.826;14.354;2022-09-13T01:56:04;15.27;;;8.22;;
74180;SDS011;62544;50.826;14.354;2022-09-13T02:00:08;15.27;;;8.22;;
74180;SDS011;62544;50.826;14.354;2022-09-13T02:04:10;15.27;;;8.22;;
74180;SDS011;62544;50.826;14.354;2022-09-13T02:08:07;12.62;;;7.16;;
74180;SDS011;62544;50.826;14.354;2022-09-13T02:12:09;12.62;;;7.16;;
74180;SDS011;62544;50.826;14.354;2022-09-13T02:16:20;11.17;;;6.36;;
74180;SDS011;62544;50.826;14.354;2022-09-13T02:20:12;11.17;;;6.36;;
74180;SDS011;62544;50.826;14.354;2022-09-13T02:24:12;11.17;;;6.36;;
74180;SDS011;62544;50.826;14.354;2022-09-13T02:28:14;11.12;;;6.10;;
74180;SDS011;62544;50.826;14.354;2022-09-13T02:32:16;11.12;;;6.10;;
74180;SDS011;62544;50.826;14.354;2022-09-13T02:36:19;8.64;;;5.26;;
74180;SDS011;62544;50.826;14.354;2022-09-13T02:40:20;8.64;;;5.26;;
74180;SDS011;62544;50.826;14.354;2022-09-13T02:44:23;8.64;;;5.26;;
74180;SDS011;62544;50.826;14.354;2022-09-13T02:48:33;14.37;;;7.09;;
74180;SDS011;62544;50.826;14.354;2022-09-13T02:56:29;11.13;;;6.06;;
74180;SDS011;62544;50.826;14.354;2022-09-13T03:00:29;11.13;;;6.06;;
74180;SDS011;62544;50.826;14.354;2022-09-13T03:04:31;11.13;;;6.06;;
74180;SDS011;62544;50.826;14.354;2022-09-13T03:08:33;7.41;;;4.93;;
74180;SDS011;62544;50.826;14.354;2022-09-13T03:12:40;7.41;;;4.93;;
74180;SDS011;62544;50.826;14.354;2022-09-13T03:24:49;7.20;;;4.50;;
74180;SDS011;62544;50.826;14.354;2022-09-13T03:32:47;6.19;;;4.16;;
74180;SDS011;62544;50.826;14.354;2022-09-13T03:36:52;7.46;;;4.87;;
74180;SDS011;62544;50.826;14.354;2022-09-13T03:40:54;7.46;;;4.87;;
74180;SDS011;62544;50.826;14.354;2022-09-13T03:44:51;7.46;;;4.87;;
74180;SDS011;62544;50.826;14.354;2022-09-13T03:48:53;7.43;;;4.56;;
74180;SDS011;62544;50.826;14.354;2022-09-13T03:53:06;7.43;;;4.56;;
74180;SDS011;62544;50.826;14.354;2022-09-13T03:57:15;8.32;;;4.67;;
74180;SDS011;62544;50.826;14.354;2022-09-13T04:00:59;8.32;;;4.67;;
74180;SDS011;62544;50.826;14.354;2022-09-13T04:05:01;8.32;;;4.67;;
74180;SDS011;62544;50.826;14.354;2022-09-13T04:09:03;7.95;;;4.88;;
74180;SDS011;62544;50.826;14.354;2022-09-13T04:13:05;7.95;;;4.88;;
74180;SDS011;62544;50.826;14.354;2022-09-13T04:17:07;6.83;;;4.49;;
74180;SDS011;62544;50.826;14.354;2022-09-13T04:21:09;6.83;;;4.49;;
74180;SDS011;62544;50.826;14.354;2022-09-13T04:25:11;6.83;;;4.49;;
74180;SDS011;62544;50.826;14.354;2022-09-13T04:29:13;8.61;;;5.21;;
74180;SDS011;62544;50.826;14.354;2022-09-13T04:33:15;8.61;;;5.21;;
74180;SDS011;62544;50.826;14.354;2022-09-13T04:37:17;10.88;;;6.25;;
74180;SDS011;62544;50.826;14.354;2022-09-13T04:41:19;10.88;;;6.25;;
74180;SDS011;62544;50.826;14.354;2022-09-13T04:45:21;10.88;;;6.25;;
74180;SDS011;62544;50.826;14.354;2022-09-13T04:49:23;12.01;;;6.90;;
74180;SDS011;62544;50.826;14.354;2022-09-13T04:53:25;12.01;;;6.90;;
74180;SDS011;62544;50.826;14.354;2022-09-13T04:57:27;12.65;;;7.04;;
74180;SDS011;62544;50.826;14.354;2022-09-13T05:01:29;12.65;;;7.04;;
74180;SDS011;62544;50.826;14.354;2022-09-13T05:05:31;12.65;;;7.04;;
74180;SDS011;62544;50.826;14.354;2022-09-13T05:09:33;12.09;;;7.06;;
74180;SDS011;62544;50.826;14.354;2022-09-13T05:13:35;12.09;;;7.06;;
74180;SDS011;62544;50.826;14.354;2022-09-13T05:17:37;21.41;;;9.84;;
74180;SDS011;62544;50.826;14.354;2022-09-13T05:21:39;21.41;;;9.84;;
74180;SDS011;62544;50.826;14.354;2022-09-13T05:25:41;21.41;;;9.84;;
74180;SDS011;62544;50.826;14.354;2022-09-13T05:29:43;22.97;;;11.16;;
74180;SDS011;62544;50.826;14.354;2022-09-13T05:33:45;22.97;;;11.16;;
74180;SDS011;62544;50.826;14.354;2022-09-13T05:37:47;23.13;;;10.73;;
74180;SDS011;62544;50.826;14.354;2022-09-13T05:41:49;23.13;;;10.73;;
74180;SDS011;62544;50.826;14.354;2022-09-13T05:45:51;23.13;;;10.73;;
74180;SDS011;62544;50.826;14.354;2022-09-13T05:49:53;16.25;;;10.10;;
74180;SDS011;62544;50.826;14.354;2022-09-13T05:53:55;16.25;;;10.10;;
74180;SDS011;62544;50.826;14.354;2022-09-13T05:57:57;5.11;;;3.93;;
74180;SDS011;62544;50.826;14.354;2022-09-13T06:01:59;5.11;;;3.93;;
74180;SDS011;62544;50.826;14.354;2022-09-13T06:06:01;9.60;;;6.71;;
74180;SDS011;62544;50.826;14.354;2022-09-13T06:10:03;9.60;;;6.71;;
74180;SDS011;62544;50.826;14.354;2022-09-13T06:14:05;9.60;;;6.71;;
74180;SDS011;62544;50.826;14.354;2022-09-13T06:18:07;2.16;;;1.51;;
74180;SDS011;62544;50.826;14.354;2022-09-13T06:22:09;2.16;;;1.51;;
74180;SDS011;62544;50.826;14.354;2022-09-13T06:26:12;2.13;;;1.68;;
74180;SDS011;62544;50.826;14.354;2022-09-13T06:30:13;2.13;;;1.68;;
74180;SDS011;62544;50.826;14.354;2022-09-13T06:34:15;2.13;;;1.68;;
74180;SDS011;62544;50.826;14.354;2022-09-13T06:38:17;2.46;;;2.22;;
74180;SDS011;62544;50.826;14.354;2022-09-13T06:42:18;2.46;;;2.22;;
74180;SDS011;62544;50.826;14.354;2022-09-13T06:46:21;3.96;;;2.83;;
74180;SDS011;62544;50.826;14.354;2022-09-13T06:50:23;3.96;;;2.83;;
74180;SDS011;62544;50.826;14.354;2022-09-13T06:54:25;3.96;;;2.83;;
74180;SDS011;62544;50.826;14.354;2022-09-13T06:58:27;3.79;;;2.35;;
74180;SDS011;62544;50.826;14.354;2022-09-13T07:02:29;3.79;;;2.35;;
74180;SDS011;62544;50.826;14.354;2022-09-13T07:06:31;5.35;;;4.06;;
74180;SDS011;62544;50.826;14.354;2022-09-13T07:10:33;5.35;;;4.06;;
74180;SDS011;62544;50.826;14.354;2022-09-13T07:14:34;5.35;;;4.06;;
74180;SDS011;62544;50.826;14.354;2022-09-13T07:18:37;8.19;;;6.29;;
74180;SDS011;62544;50.826;14.354;2022-09-13T07:22:39;8.19;;;6.29;;
74180;SDS011;62544;50.826;14.354;2022-09-13T07:26:41;9.59;;;6.24;;
74180;SDS011;62544;50.826;14.354;2022-09-13T07:30:42;9.59;;;6.24;;
74180;SDS011;62544;50.826;14.354;2022-09-13T07:34:44;9.59;;;6.24;;
74180;SDS011;62544;50.826;14.354;2022-09-13T07:38:47;10.01;;;7.34;;
74180;SDS011;62544;50.826;14.354;2022-09-13T07:42:49;10.01;;;7.34;;
74180;SDS011;62544;50.826;14.354;2022-09-13T07:46:51;9.90;;;8.17;;
74180;SDS011;62544;50.826;14.354;2022-09-13T07:54:55;9.90;;;8.17;;
74180;SDS011;62544;50.826;14.354;2022-09-13T07:58:57;7.09;;;6.18;;
74180;SDS011;62544;50.826;14.354;2022-09-13T08:02:59;7.09;;;6.18;;
74180;SDS011;62544;50.826;14.354;2022-09-13T08:07:01;8.74;;;6.79;;
74180;SDS011;62544;50.826;14.354;2022-09-13T08:11:03;8.74;;;6.79;;
74180;SDS011;62544;50.826;14.354;2022-09-13T08:15:05;8.74;;;6.79;;
74180;SDS011;62544;50.826;14.354;2022-09-13T08:19:08;10.12;;;6.94;;
74180;SDS011;62544;50.826;14.354;2022-09-13T08:23:09;10.12;;;6.94;;
74180;SDS011;62544;50.826;14.354;2022-09-13T08:27:11;11.84;;;7.64;;
74180;SDS011;62544;50.826;14.354;2022-09-13T08:31:14;11.84;;;7.64;;
74180;SDS011;62544;50.826;14.354;2022-09-13T08:35:15;11.84;;;7.64;;
74180;SDS011;62544;50.826;14.354;2022-09-13T08:39:16;8.08;;;6.51;;
74180;SDS011;62544;50.826;14.354;2022-09-13T09:07:32;8.66;;;6.62;;
74180;SDS011;62544;50.826;14.354;2022-09-13T09:11:49;8.66;;;6.62;;
74180;SDS011;62544;50.826;14.354;2022-09-13T09:15:44;8.66;;;6.62;;
74180;SDS011;62544;50.826;14.354;2022-09-13T09:19:38;6.52;;;5.88;;
74180;SDS011;62544;50.826;14.354;2022-09-13T09:23:51;6.52;;;5.88;;
74180;SDS011;62544;50.826;14.354;2022-09-13T09:27:41;7.62;;;6.42;;
74180;SDS011;62544;50.826;14.354;2022-09-13T09:39:47;7.56;;;6.79;;
74180;SDS011;62544;50.826;14.354;2022-09-13T09:43:50;7.56;;;6.79;;
74180;SDS011;62544;50.826;14.354;2022-09-13T09:47:51;7.78;;;6.68;;
74180;SDS011;62544;50.826;14.354;2022-09-13T09:51:53;7.78;;;6.68;;
74180;SDS011;62544;50.826;14.354;2022-09-13T09:56:05;8.25;;;6.41;;
74180;SDS011;62544;50.826;14.354;2022-09-13T10:00:09;8.25;;;6.41;;
74180;SDS011;62544;50.826;14.354;2022-09-13T10:04:05;8.25;;;6.41;;
74180;SDS011;62544;50.826;14.354;2022-09-13T10:08:02;10.48;;;7.16;;
74180;SDS011;62544;50.826;14.354;2022-09-13T10:12:03;10.48;;;7.16;;
74180;SDS011;62544;50.826;14.354;2022-09-13T10:16:06;7.94;;;7.08;;
74180;SDS011;62544;50.826;14.354;2022-09-13T10:20:18;7.94;;;7.08;;
74180;SDS011;62544;50.826;14.354;2022-09-13T10:24:15;7.94;;;7.08;;
74180;SDS011;62544;50.826;14.354;2022-09-13T10:28:14;11.79;;;7.54;;
74180;SDS011;62544;50.826;14.354;2022-09-13T10:32:13;11.79;;;7.54;;
74180;SDS011;62544;50.826;14.354;2022-09-13T10:36:17;9.52;;;6.54;;
74180;SDS011;62544;50.826;14.354;2022-09-13T10:48:21;8.97;;;7.73;;
74180;SDS011;62544;50.826;14.354;2022-09-13T10:52:27;8.97;;;7.73;;
74180;SDS011;62544;50.826;14.354;2022-09-13T10:56:26;10.02;;;8.41;;
74180;SDS011;62544;50.826;14.354;2022-09-13T11:00:34;10.02;;;8.41;;
74180;SDS011;62544;50.826;14.354;2022-09-13T11:04:43;10.02;;;8.41;;
74180;SDS011;62544;50.826;14.354;2022-09-13T11:12:37;37.38;;;8.63;;
74180;SDS011;62544;50.826;14.354;2022-09-13T11:28:49;12.43;;;8.23;;
74180;SDS011;62544;50.826;14.354;2022-09-13T11:32:47;12.43;;;8.23;;
74180;SDS011;62544;50.826;14.354;2022-09-13T11:56:58;13.34;;;8.25;;
74180;SDS011;62544;50.826;14.354;2022-09-13T12:00:59;13.34;;;8.25;;
74180;SDS011;62544;50.826;14.354;2022-09-13T12:09:04;15.23;;;6.59;;
74180;SDS011;62544;50.826;14.354;2022-09-13T12:13:05;15.23;;;6.59;;
74180;SDS011;62544;50.826;14.354;2022-09-13T12:17:08;7.88;;;5.52;;
74180;SDS011;62544;50.826;14.354;2022-09-13T12:21:12;7.88;;;5.52;;
74180;SDS011;62544;50.826;14.354;2022-09-13T12:29:23;5.64;;;4.28;;
74180;SDS011;62544;50.826;14.354;2022-09-13T12:33:14;5.64;;;4.28;;
74180;SDS011;62544;50.826;14.354;2022-09-13T12:37:27;9.03;;;4.32;;
74180;SDS011;62544;50.826;14.354;2022-09-13T12:41:27;9.03;;;4.32;;
74180;SDS011;62544;50.826;14.354;2022-09-13T12:45:34;9.03;;;4.32;;
74180;SDS011;62544;50.826;14.354;2022-09-13T12:53:43;7.18;;;4.33;;
74180;SDS011;62544;50.826;14.354;2022-09-13T13:01:28;7.18;;;4.33;;
74180;SDS011;62544;50.826;14.354;2022-09-13T13:05:34;7.18;;;4.33;;
74180;SDS011;62544;50.826;14.354;2022-09-13T13:09:41;8.23;;;5.88;;
74180;SDS011;62544;50.826;14.354;2022-09-13T13:13:37;8.23;;;5.88;;
74180;SDS011;62544;50.826;14.354;2022-09-13T13:17:46;5.37;;;3.90;;
74180;SDS011;62544;50.826;14.354;2022-09-13T13:21:38;5.37;;;3.90;;
74180;SDS011;62544;50.826;14.354;2022-09-13T13:25:53;5.37;;;3.90;;
74180;SDS011;62544;50.826;14.354;2022-09-13T13:29:42;6.71;;;3.55;;
74180;SDS011;62544;50.826;14.354;2022-09-13T13:33:51;6.71;;;3.55;;
74180;SDS011;62544;50.826;14.354;2022-09-13T13:37:46;5.56;;;3.57;;
74180;SDS011;62544;50.826;14.354;2022-09-13T13:41:52;5.56;;;3.57;;
74180;SDS011;62544;50.826;14.354;2022-09-13T13:45:57;5.56;;;3.57;;
74180;SDS011;62544;50.826;14.354;2022-09-13T13:53:55;25.72;;;5.34;;
74180;SDS011;62544;50.826;14.354;2022-09-13T13:58:00;33.79;;;5.37;;
74180;SDS011;62544;50.826;14.354;2022-09-13T14:01:58;33.79;;;5.37;;
74180;SDS011;62544;50.826;14.354;2022-09-13T14:06:09;33.79;;;5.37;;
74180;SDS011;62544;50.826;14.354;2022-09-13T14:10:04;4.56;;;2.97;;
74180;SDS011;62544;50.826;14.354;2022-09-13T14:14:26;4.56;;;2.97;;
74180;SDS011;62544;50.826;14.354;2022-09-13T14:18:23;4.78;;;2.49;;
74180;SDS011;62544;50.826;14.354;2022-09-13T14:22:12;4.78;;;2.49;;
74180;SDS011;62544;50.826;14.354;2022-09-13T14:26:10;4.78;;;2.49;;
74180;SDS011;62544;50.826;14.354;2022-09-13T14:30:16;5.69;;;2.10;;
74180;SDS011;62544;50.826;14.354;2022-09-13T14:34:23;5.69;;;2.10;;
74180;SDS011;62544;50.826;14.354;2022-09-13T14:38:20;3.79;;;2.40;;
74180;SDS011;62544;50.826;14.354;2022-09-13T14:42:18;3.79;;;2.40;;
74180;SDS011;62544;50.826;14.354;2022-09-13T14:46:21;3.79;;;2.40;;
74180;SDS011;62544;50.826;14.354;2022-09-13T14:50:31;3.49;;;2.59;;
74180;SDS011;62544;50.826;14.354;2022-09-13T14:54:31;3.49;;;2.59;;
74180;SDS011;62544;50.826;14.354;2022-09-13T14:58:27;3.39;;;2.49;;
74180;SDS011;62544;50.826;14.354;2022-09-13T15:02:29;3.39;;;2.49;;
74180;SDS011;62544;50.826;14.354;2022-09-13T15:06:31;12.08;;;3.56;;
74180;SDS011;62544;50.826;14.354;2022-09-13T15:10:32;12.08;;;3.56;;
74180;SDS011;62544;50.826;14.354;2022-09-13T15:14:34;12.08;;;3.56;;
74180;SDS011;62544;50.826;14.354;2022-09-13T15:18:36;4.40;;;2.93;;
74180;SDS011;62544;50.826;14.354;2022-09-13T15:22:40;4.40;;;2.93;;
74180;SDS011;62544;50.826;14.354;2022-09-13T15:26:40;277.79;;;32.98;;
74180;SDS011;62544;50.826;14.354;2022-09-13T15:30:42;277.79;;;32.98;;
74180;SDS011;62544;50.826;14.354;2022-09-13T15:34:47;277.79;;;32.98;;
74180;SDS011;62544;50.826;14.354;2022-09-13T15:38:56;9.13;;;3.99;;
74180;SDS011;62544;50.826;14.354;2022-09-13T15:42:48;9.13;;;3.99;;
74180;SDS011;62544;50.826;14.354;2022-09-13T15:46:54;5.24;;;2.81;;
74180;SDS011;62544;50.826;14.354;2022-09-13T15:54:54;5.24;;;2.81;;
74180;SDS011;62544;50.826;14.354;2022-09-13T15:58:56;28.23;;;6.20;;
74180;SDS011;62544;50.826;14.354;2022-09-13T16:02:58;28.23;;;6.20;;
74180;SDS011;62544;50.826;14.354;2022-09-13T16:07:00;7.48;;;3.03;;
74180;SDS011;62544;50.826;14.354;2022-09-13T16:11:02;7.48;;;3.03;;
74180;SDS011;62544;50.826;14.354;2022-09-13T16:15:04;7.48;;;3.03;;
74180;SDS011;62544;50.826;14.354;2022-09-13T16:19:09;3.81;;;2.62;;
74180;SDS011;62544;50.826;14.354;2022-09-13T16:23:08;3.81;;;2.62;;
74180;SDS011;62544;50.826;14.354;2022-09-13T16:27:13;6.26;;;3.79;;
74180;SDS011;62544;50.826;14.354;2022-09-13T16:31:12;6.26;;;3.79;;
74180;SDS011;62544;50.826;14.354;2022-09-13T16:35:14;6.26;;;3.79;;
74180;SDS011;62544;50.826;14.354;2022-09-13T16:39:16;5.45;;;3.30;;
74180;SDS011;62544;50.826;14.354;2022-09-13T16:43:18;5.45;;;3.30;;
74180;SDS011;62544;50.826;14.354;2022-09-13T16:47:20;4.77;;;2.94;;
74180;SDS011;62544;50.826;14.354;2022-09-13T16:51:22;4.77;;;2.94;;
74180;SDS011;62544;50.826;14.354;2022-09-13T16:55:24;4.77;;;2.94;;
74180;SDS011;62544;50.826;14.354;2022-09-13T16:59:26;33.35;;;26.15;;
74180;SDS011;62544;50.826;14.354;2022-09-13T17:03:28;33.35;;;26.15;;
74180;SDS011;62544;50.826;14.354;2022-09-13T17:07:30;5.25;;;3.10;;
74180;SDS011;62544;50.826;14.354;2022-09-13T17:11:33;5.25;;;3.10;;
74180;SDS011;62544;50.826;14.354;2022-09-13T17:15:37;5.25;;;3.10;;
74180;SDS011;62544;50.826;14.354;2022-09-13T17:19:36;3.45;;;2.66;;
74180;SDS011;62544;50.826;14.354;2022-09-13T17:23:38;3.45;;;2.66;;
74180;SDS011;62544;50.826;14.354;2022-09-13T17:27:39;4.55;;;2.86;;
74180;SDS011;62544;50.826;14.354;2022-09-13T17:31:41;4.55;;;2.86;;
74180;SDS011;62544;50.826;14.354;2022-09-13T17:35:44;4.55;;;2.86;;
74180;SDS011;62544;50.826;14.354;2022-09-13T17:39:46;6.87;;;3.60;;
74180;SDS011;62544;50.826;14.354;2022-09-13T17:43:48;6.87;;;3.60;;
74180;SDS011;62544;50.826;14.354;2022-09-13T17:47:53;4.85;;;3.17;;
74180;SDS011;62544;50.826;14.354;2022-09-13T17:51:53;4.85;;;3.17;;
74180;SDS011;62544;50.826;14.354;2022-09-13T17:55:53;4.85;;;3.17;;
74180;SDS011;62544;50.826;14.354;2022-09-13T17:59:55;3.32;;;2.84;;
74180;SDS011;62544;50.826;14.354;2022-09-13T18:03:57;3.32;;;2.84;;
74180;SDS011;62544;50.826;14.354;2022-09-13T18:08:00;7.52;;;5.85;;
74180;SDS011;62544;50.826;14.354;2022-09-13T18:12:02;7.52;;;5.85;;
74180;SDS011;62544;50.826;14.354;2022-09-13T18:16:04;7.52;;;5.85;;
74180;SDS011;62544;50.826;14.354;2022-09-13T18:20:06;3.64;;;2.84;;
74180;SDS011;62544;50.826;14.354;2022-09-13T18:24:08;3.64;;;2.84;;
74180;SDS011;62544;50.826;14.354;2022-09-13T18:28:09;3.09;;;2.81;;
74180;SDS011;62544;50.826;14.354;2022-09-13T18:32:12;3.09;;;2.81;;
74180;SDS011;62544;50.826;14.354;2022-09-13T18:36:14;3.09;;;2.81;;
74180;SDS011;62544;50.826;14.354;2022-09-13T18:40:16;3.44;;;3.12;;
74180;SDS011;62544;50.826;14.354;2022-09-13T18:44:17;3.44;;;3.12;;
74180;SDS011;62544;50.826;14.354;2022-09-13T18:48:20;4.36;;;3.51;;
74180;SDS011;62544;50.826;14.354;2022-09-13T18:52:22;4.36;;;3.51;;
74180;SDS011;62544;50.826;14.354;2022-09-13T18:56:24;4.36;;;3.51;;
74180;SDS011;62544;50.826;14.354;2022-09-13T19:00:25;3.62;;;3.25;;
74180;SDS011;62544;50.826;14.354;2022-09-13T19:04:27;3.62;;;3.25;;
74180;SDS011;62544;50.826;14.354;2022-09-13T19:08:30;3.92;;;2.99;;
74180;SDS011;62544;50.826;14.354;2022-09-13T19:12:32;3.92;;;2.99;;
74180;SDS011;62544;50.826;14.354;2022-09-13T19:16:34;4.33;;;3.33;;
74180;SDS011;62544;50.826;14.354;2022-09-13T19:20:36;4.33;;;3.33;;
74180;SDS011;62544;50.826;14.354;2022-09-13T19:24:38;4.33;;;3.33;;
74180;SDS011;62544;50.826;14.354;2022-09-13T19:28:44;3.86;;;3.46;;
74180;SDS011;62544;50.826;14.354;2022-09-13T19:32:41;3.86;;;3.46;;
74180;SDS011;62544;50.826;14.354;2022-09-13T19:36:44;5.11;;;4.59;;
74180;SDS011;62544;50.826;14.354;2022-09-13T19:40:54;5.11;;;4.59;;
74180;SDS011;62544;50.826;14.354;2022-09-13T19:44:48;5.11;;;4.59;;
74180;SDS011;62544;50.826;14.354;2022-09-13T19:48:50;4.98;;;4.22;;
74180;SDS011;62544;50.826;14.354;2022-09-13T19:52:52;4.98;;;4.22;;
74180;SDS011;62544;50.826;14.354;2022-09-13T19:56:54;6.42;;;5.40;;
74180;SDS011;62544;50.826;14.354;2022-09-13T20:04:58;6.42;;;5.40;;
74180;SDS011;62544;50.826;14.354;2022-09-13T20:08:59;5.40;;;4.52;;
74180;SDS011;62544;50.826;14.354;2022-09-13T20:13:01;5.40;;;4.52;;
74180;SDS011;62544;50.826;14.354;2022-09-13T20:17:04;8.16;;;6.36;;
74180;SDS011;62544;50.826;14.354;2022-09-13T20:21:06;8.16;;;6.36;;
74180;SDS011;62544;50.826;14.354;2022-09-13T20:25:08;8.16;;;6.36;;
74180;SDS011;62544;50.826;14.354;2022-09-13T20:29:10;6.64;;;5.80;;
74180;SDS011;62544;50.826;14.354;2022-09-13T20:33:11;6.64;;;5.80;;
74180;SDS011;62544;50.826;14.354;2022-09-13T20:37:13;6.22;;;5.34;;
74180;SDS011;62544;50.826;14.354;2022-09-13T20:41:15;6.22;;;5.34;;
74180;SDS011;62544;50.826;14.354;2022-09-13T20:45:17;6.22;;;5.34;;
74180;SDS011;62544;50.826;14.354;2022-09-13T20:49:19;6.47;;;5.77;;
74180;SDS011;62544;50.826;14.354;2022-09-13T20:53:21;6.47;;;5.77;;
74180;SDS011;62544;50.826;14.354;2022-09-13T20:57:24;7.66;;;6.36;;
74180;SDS011;62544;50.826;14.354;2022-09-13T21:01:26;7.66;;;6.36;;
74180;SDS011;62544;50.826;14.354;2022-09-13T21:05:27;7.66;;;6.36;;
74180;SDS011;62544;50.826;14.354;2022-09-13T21:09:29;9.83;;;6.69;;
74180;SDS011;62544;50.826;14.354;2022-09-13T21:13:32;9.83;;;6.69;;
74180;SDS011;62544;50.826;14.354;2022-09-13T21:17:33;8.63;;;6.68;;
74180;SDS011;62544;50.826;14.354;2022-09-13T21:21:36;8.63;;;6.68;;
74180;SDS011;62544;50.826;14.354;2022-09-13T21:25:37;8.63;;;6.68;;
74180;SDS011;62544;50.826;14.354;2022-09-13T21:29:39;9.34;;;6.92;;
74180;SDS011;62544;50.826;14.354;2022-09-13T21:33:41;9.34;;;6.92;;
74180;SDS011;62544;50.826;14.354;2022-09-13T21:37:43;8.27;;;6.66;;
74180;SDS011;62544;50.826;14.354;2022-09-13T21:41:45;8.27;;;6.66;;
74180;SDS011;62544;50.826;14.354;2022-09-13T21:45:47;8.27;;;6.66;;
74180;SDS011;62544;50.826;14.354;2022-09-13T21:49:49;9.35;;;7.20;;
74180;SDS011;62544;50.826;14.354;2022-09-13T21:53:52;9.35;;;7.20;;
74180;SDS011;62544;50.826;14.354;2022-09-13T21:57:53;10.46;;;7.66;;
74180;SDS011;62544;50.826;14.354;2022-09-13T22:01:55;10.46;;;7.66;;
74180;SDS011;62544;50.826;14.354;2022-09-13T22:05:57;10.46;;;7.66;;
74180;SDS011;62544;50.826;14.354;2022-09-13T22:09:59;9.60;;;6.85;;
74180;SDS011;62544;50.826;14.354;2022-09-13T22:14:01;9.60;;;6.85;;
74180;SDS011;62544;50.826;14.354;2022-09-13T22:18:03;8.24;;;6.43;;
74180;SDS011;62544;50.826;14.354;2022-09-13T22:22:05;8.24;;;6.43;;
74180;SDS011;62544;50.826;14.354;2022-09-13T22:26:14;8.24;;;6.43;;
74180;SDS011;62544;50.826;14.354;2022-09-13T22:30:10;9.32;;;7.01;;
74180;SDS011;62544;50.826;14.354;2022-09-13T22:34:12;9.32;;;7.01;;
74180;SDS011;62544;50.826;14.354;2022-09-13T22:38:13;10.32;;;7.59;;
74180;SDS011;62544;50.826;14.354;2022-09-13T22:42:15;10.32;;;7.59;;
74180;SDS011;62544;50.826;14.354;2022-09-13T22:46:21;10.32;;;7.59;;
74180;SDS011;62544;50.826;14.354;2022-09-13T22:50:19;11.70;;;8.42;;
74180;SDS011;62544;50.826;14.354;2022-09-13T22:54:21;11.70;;;8.42;;
74180;SDS011;62544;50.826;14.354;2022-09-13T22:58:23;11.73;;;7.93;;
74180;SDS011;62544;50.826;14.354;2022-09-13T23:02:25;11.73;;;7.93;;
74180;SDS011;62544;50.826;14.354;2022-09-13T23:06:27;15.49;;;10.07;;
74180;SDS011;62544;50.826;14.354;2022-09-13T23:10:29;15.49;;;10.07;;
74180;SDS011;62544;50.826;14.354;2022-09-13T23:14:31;15.49;;;10.07;;
74180;SDS011;62544;50.826;14.354;2022-09-13T23:18:33;20.41;;;12.11;;
74180;SDS011;62544;50.826;14.354;2022-09-13T23:22:35;20.41;;;12.11;;
74180;SDS011;62544;50.826;14.354;2022-09-13T23:26:37;11.88;;;8.32;;
74180;SDS011;62544;50.826;14.354;2022-09-13T23:30:39;11.88;;;8.32;;
74180;SDS011;62544;50.826;14.354;2022-09-13T23:34:41;11.88;;;8.32;;
74180;SDS011;62544;50.826;14.354;2022-09-13T23:38:47;19.36;;;11.10;;
74180;SDS011;62544;50.826;14.354;2022-09-13T23:42:45;19.36;;;11.10;;
74180;SDS011;62544;50.826;14.354;2022-09-13T23:46:47;10.04;;;7.37;;
74180;SDS011;62544;50.826;14.354;2022-09-13T23:54:51;10.04;;;7.37;;
74180;SDS011;62544;50.826;14.354;2022-09-13T23:58:54;14.92;;;9.75;;
